createdAt,value
2023-03-31T00:00:34.353Z,5.68
2023-03-31T00:03:03.078Z,5.77
2023-03-31T00:05:33.390Z,5.86
2023-03-31T00:08:02.126Z,5.93
2023-03-31T00:10:34.003Z,5.90
2023-03-31T00:13:02.863Z,5.82
2023-03-31T00:15:30.930Z,5.81
2023-03-31T00:18:00.683Z,5.99
2023-03-31T00:20:28.895Z,6.12
2023-03-31T00:22:57.748Z,6.11
2023-03-31T00:25:25.889Z,6.06
2023-03-31T00:27:55.462Z,6.09
2023-03-31T00:30:23.433Z,6.17
2023-03-31T00:32:51.467Z,6.25
2023-03-31T00:35:19.447Z,6.18
2023-03-31T00:37:47.386Z,6.27
2023-03-31T00:40:15.443Z,6.32
2023-03-31T00:42:43.999Z,6.31
2023-03-31T00:45:31.034Z,6.36
2023-03-31T00:48:04.473Z,6.38
2023-03-31T00:50:36.154Z,6.46
2023-03-31T00:53:09.212Z,6.65
2023-03-31T00:55:41.271Z,6.66
2023-03-31T00:58:14.434Z,6.74
2023-03-31T01:00:44.217Z,6.79
2023-03-31T01:03:12.318Z,6.67
2023-03-31T01:05:45.915Z,6.68
2023-03-31T01:08:15.967Z,6.45
2023-03-31T01:10:48.017Z,6.69
2023-03-31T01:13:17.597Z,6.71
2023-03-31T01:15:47.073Z,6.79
2023-03-31T01:18:21.225Z,6.73
2023-03-31T01:21:09.313Z,6.75
2023-03-31T01:24:03.754Z,6.74
2023-03-31T01:26:55.058Z,6.70
2023-03-31T01:29:49.197Z,6.72
2023-03-31T01:32:49.429Z,6.62
2023-03-31T01:36:08.640Z,6.69
2023-03-31T01:39:01.218Z,6.44
2023-03-31T01:41:42.403Z,6.65
2023-03-31T01:44:23.649Z,6.50
2023-03-31T01:46:57.016Z,6.28
2023-03-31T01:49:35.733Z,6.62
2023-03-31T01:52:09.492Z,6.75
2023-03-31T01:54:45.127Z,6.73
2023-03-31T01:57:20.493Z,6.72
2023-03-31T01:59:57.180Z,6.50
2023-03-31T02:02:31.591Z,6.39
2023-03-31T02:05:03.289Z,6.28
2023-03-31T02:07:36.564Z,6.37
2023-03-31T02:10:08.891Z,6.41
2023-03-31T02:12:41.791Z,6.37
2023-03-31T02:15:14.541Z,6.20
2023-03-31T02:17:46.408Z,6.46
2023-03-31T02:20:16.652Z,6.29
2023-03-31T02:22:50.684Z,6.42
2023-03-31T02:25:22.572Z,6.16
2023-03-31T02:27:56.920Z,6.21
2023-03-31T02:30:26.209Z,6.20
2023-03-31T02:32:54.655Z,6.34
2023-03-31T02:35:23.192Z,6.51
2023-03-31T02:37:51.408Z,6.67
2023-03-31T02:40:21.872Z,6.60
2023-03-31T02:42:50.564Z,6.67
2023-03-31T02:45:43.713Z,6.59
2023-03-31T02:48:16.249Z,6.57
2023-03-31T02:51:02.909Z,6.57
2023-03-31T02:53:41.435Z,6.53
2023-03-31T02:56:26.446Z,6.55
2023-03-31T02:59:25.138Z,6.44
2023-03-31T03:02:08.757Z,6.36
2023-03-31T03:04:59.728Z,6.30
2023-03-31T03:07:37.719Z,6.49
2023-03-31T03:10:11.601Z,6.81
2023-03-31T03:12:49.884Z,6.92
2023-03-31T03:15:25.817Z,7.02
2023-03-31T03:17:57.225Z,7.12
2023-03-31T03:20:25.545Z,7.07
2023-03-31T03:22:53.441Z,7.04
2023-03-31T03:25:21.665Z,7.09
2023-03-31T03:27:49.596Z,7.11
2023-03-31T03:30:17.736Z,7.09
2023-03-31T03:32:46.461Z,7.21
2023-03-31T03:35:15.950Z,7.33
2023-03-31T03:37:43.913Z,7.32
2023-03-31T03:40:12.461Z,7.30
2023-03-31T03:42:40.391Z,7.35
2023-03-31T03:45:08.875Z,7.38
2023-03-31T03:47:37.243Z,7.41
2023-03-31T03:50:06.017Z,7.46
2023-03-31T03:52:35.462Z,7.50
2023-03-31T03:55:03.632Z,7.52
2023-03-31T03:57:31.638Z,7.46
2023-03-31T03:59:59.625Z,7.55
2023-03-31T04:02:28.980Z,7.59
2023-03-31T04:04:57.123Z,7.62
2023-03-31T04:07:25.069Z,7.61
2023-03-31T04:09:54.358Z,7.49
2023-03-31T04:12:22.296Z,7.43
2023-03-31T04:14:50.215Z,7.27
2023-03-31T04:17:18.134Z,7.34
2023-03-31T04:19:50.949Z,7.31
2023-03-31T04:22:20.784Z,7.29
2023-03-31T04:24:52.848Z,7.31
2023-03-31T04:27:23.108Z,7.17
2023-03-31T04:29:55.040Z,6.58
2023-03-31T04:32:23.644Z,6.58
2023-03-31T04:34:51.813Z,6.65
2023-03-31T04:37:19.983Z,6.48
2023-03-31T04:39:50.772Z,6.82
2023-03-31T04:42:18.740Z,6.91
2023-03-31T04:44:48.112Z,6.99
2023-03-31T04:47:16.016Z,6.92
2023-03-31T04:49:43.995Z,6.60
2023-03-31T04:52:11.925Z,6.84
2023-03-31T04:54:39.917Z,6.80
2023-03-31T04:57:07.878Z,6.71
2023-03-31T04:59:35.944Z,6.72
2023-03-31T05:02:05.290Z,7.02
2023-03-31T05:04:33.243Z,7.20
2023-03-31T05:07:01.234Z,7.05
2023-03-31T05:09:29.140Z,6.94
2023-03-31T05:11:58.111Z,6.90
2023-03-31T05:14:26.222Z,7.02
2023-03-31T05:16:54.352Z,7.14
2023-03-31T05:19:23.647Z,6.91
2023-03-31T05:21:51.582Z,7.20
2023-03-31T05:24:19.515Z,7.40
2023-03-31T05:26:52.538Z,7.52
2023-03-31T05:29:20.928Z,7.65
2023-03-31T05:31:49.092Z,7.68
2023-03-31T05:34:17.212Z,7.73
2023-03-31T05:36:48.113Z,7.62
2023-03-31T05:39:16.315Z,7.55
2023-03-31T05:41:44.244Z,7.59
2023-03-31T05:44:12.336Z,7.73
2023-03-31T05:46:41.401Z,7.69
2023-03-31T05:49:10.044Z,7.71
2023-03-31T05:51:38.031Z,7.61
2023-03-31T05:54:07.427Z,7.71
2023-03-31T05:56:35.386Z,7.77
2023-03-31T05:59:05.217Z,7.87
2023-03-31T06:01:33.631Z,8.16
2023-03-31T06:04:01.979Z,8.29
2023-03-31T06:06:29.988Z,8.15
2023-03-31T06:08:57.994Z,8.47
2023-03-31T06:11:27.884Z,8.52
2023-03-31T06:13:55.848Z,8.56
2023-03-31T06:16:23.809Z,8.64
2023-03-31T06:18:53.669Z,8.79
2023-03-31T06:21:21.938Z,8.63
2023-03-31T06:23:50.347Z,8.50
2023-03-31T06:26:20.188Z,8.59
2023-03-31T06:28:49.782Z,8.54
2023-03-31T06:31:19.863Z,8.54
2023-03-31T06:33:47.861Z,8.45
2023-03-31T06:36:17.771Z,8.55
2023-03-31T06:38:46.186Z,8.53
2023-03-31T06:41:16.519Z,8.40
2023-03-31T06:43:44.448Z,8.40
2023-03-31T06:46:13.822Z,8.39
2023-03-31T06:48:42.647Z,8.31
2023-03-31T06:51:11.075Z,8.28
2023-03-31T06:53:39.113Z,8.38
2023-03-31T06:56:08.059Z,8.46
2023-03-31T06:58:36.576Z,8.47
2023-03-31T07:01:06.104Z,8.43
2023-03-31T07:03:35.911Z,8.30
2023-03-31T07:06:04.008Z,7.96
2023-03-31T07:08:33.237Z,8.01
2023-03-31T07:11:02.360Z,8.16
2023-03-31T07:13:30.888Z,8.09
2023-03-31T07:15:59.190Z,7.99
2023-03-31T07:18:34.383Z,8.16
2023-03-31T07:21:09.068Z,8.32
2023-03-31T07:23:38.135Z,8.21
2023-03-31T07:26:06.674Z,8.25
2023-03-31T07:28:34.684Z,8.24
2023-03-31T07:31:02.574Z,8.29
2023-03-31T07:33:30.950Z,8.23
2023-03-31T07:36:10.843Z,8.14
2023-03-31T07:38:46.841Z,8.35
2023-03-31T07:41:16.825Z,8.48
2023-03-31T07:43:44.738Z,8.51
2023-03-31T07:46:17.470Z,8.30
2023-03-31T07:48:46.638Z,8.14
2023-03-31T07:51:15.473Z,8.48
2023-03-31T07:53:44.905Z,8.64
2023-03-31T07:56:13.185Z,8.84
2023-03-31T07:58:41.907Z,8.95
2023-03-31T08:01:09.927Z,9.18
2023-03-31T08:03:37.856Z,9.23
2023-03-31T08:06:06.194Z,9.25
2023-03-31T08:08:34.556Z,9.55
2023-03-31T08:11:03.988Z,9.84
2023-03-31T08:13:32.025Z,9.76
2023-03-31T08:16:00.053Z,10.06
2023-03-31T08:18:28.136Z,10.29
2023-03-31T08:20:56.090Z,10.43
2023-03-31T08:23:24.037Z,10.88
2023-03-31T08:25:51.957Z,11.28
2023-03-31T08:28:21.700Z,11.58
2023-03-31T08:30:49.645Z,11.79
2023-03-31T08:33:18.268Z,11.96
2023-03-31T08:35:46.326Z,12.16
2023-03-31T08:38:14.251Z,12.64
2023-03-31T08:40:43.035Z,12.89
2023-03-31T08:43:16.666Z,13.10
2023-03-31T08:45:48.871Z,13.39
2023-03-31T08:48:25.878Z,13.53
2023-03-31T08:50:58.677Z,13.75
2023-03-31T08:53:30.932Z,13.81
2023-03-31T08:56:01.306Z,14.09
2023-03-31T08:58:39.515Z,14.34
2023-03-31T09:01:19.856Z,14.60
2023-03-31T09:04:05.017Z,14.76
2023-03-31T09:06:39.235Z,14.92
2023-03-31T09:09:12.680Z,15.16
2023-03-31T09:11:49.043Z,15.29
2023-03-31T09:14:27.992Z,15.62
2023-03-31T09:17:03.741Z,15.84
2023-03-31T09:19:38.593Z,15.76
2023-03-31T09:22:14.269Z,15.60
2023-03-31T09:24:52.219Z,15.80
2023-03-31T09:27:22.448Z,15.96
2023-03-31T09:29:53.263Z,16.07
2023-03-31T09:32:24.879Z,16.25
2023-03-31T09:34:57.348Z,16.83
2023-03-31T09:37:28.661Z,17.00
2023-03-31T09:39:56.645Z,16.80
2023-03-31T09:42:24.592Z,16.90
2023-03-31T09:44:52.582Z,16.81
2023-03-31T09:47:27.189Z,16.80
2023-03-31T09:49:55.192Z,17.08
2023-03-31T09:52:30.728Z,17.36
2023-03-31T09:55:02.516Z,17.72
2023-03-31T09:57:33.840Z,17.84
2023-03-31T10:00:13.651Z,18.01
2023-03-31T10:02:45.880Z,17.96
2023-03-31T10:05:29.433Z,18.02
2023-03-31T10:08:29.535Z,18.41
2023-03-31T10:10:59.879Z,18.71
2023-03-31T10:13:30.448Z,18.69
2023-03-31T10:16:05.155Z,19.00
2023-03-31T10:18:37.868Z,18.90
2023-03-31T10:21:09.051Z,18.50
2023-03-31T10:23:37.808Z,18.13
2023-03-31T10:26:06.798Z,18.09
2023-03-31T10:28:38.370Z,18.12
2023-03-31T10:31:08.830Z,17.91
2023-03-31T10:33:45.177Z,17.78
2023-03-31T10:36:22.131Z,17.50
2023-03-31T10:38:51.795Z,17.22
2023-03-31T10:41:22.475Z,17.17
2023-03-31T10:43:52.832Z,17.20
2023-03-31T10:46:21.836Z,17.26
2023-03-31T10:48:52.743Z,17.57
2023-03-31T10:51:22.549Z,17.42
2023-03-31T10:53:52.139Z,17.93
2023-03-31T10:56:39.459Z,18.37
2023-03-31T10:59:32.333Z,18.88
2023-03-31T11:02:25.128Z,18.86
2023-03-31T11:05:04.781Z,18.34
2023-03-31T11:07:43.516Z,18.84
2023-03-31T11:10:44.011Z,18.89
2023-03-31T11:13:18.458Z,19.04
2023-03-31T11:15:57.378Z,19.07
2023-03-31T11:18:41.260Z,18.96
2023-03-31T11:21:22.246Z,19.06
2023-03-31T11:24:02.510Z,18.62
2023-03-31T11:26:38.629Z,18.25
2023-03-31T11:29:22.729Z,18.03
2023-03-31T11:31:54.168Z,17.82
2023-03-31T11:34:43.564Z,18.13
2023-03-31T11:37:46.034Z,18.01
2023-03-31T11:40:29.517Z,17.57
2023-03-31T11:43:03.445Z,17.58
2023-03-31T11:45:33.659Z,17.75
2023-03-31T11:48:07.731Z,17.64
2023-03-31T11:50:40.193Z,17.48
2023-03-31T11:53:17.707Z,17.79
2023-03-31T11:55:49.597Z,17.66
2023-03-31T11:58:20.011Z,18.03
2023-03-31T12:00:52.960Z,18.27
2023-03-31T12:03:24.781Z,18.44
2023-03-31T12:05:57.672Z,18.85
2023-03-31T12:08:33.195Z,18.76
2023-03-31T12:11:06.439Z,19.49
2023-03-31T12:13:42.167Z,19.56
2023-03-31T12:16:16.196Z,19.68
2023-03-31T12:18:54.523Z,19.76
2023-03-31T12:21:24.835Z,19.92
2023-03-31T12:23:54.229Z,20.28
2023-03-31T12:26:42.494Z,20.45
2023-03-31T12:29:23.928Z,19.99
2023-03-31T12:31:54.947Z,19.22
2023-03-31T12:34:25.175Z,19.53
2023-03-31T12:37:10.801Z,20.12
2023-03-31T12:39:54.197Z,20.30
2023-03-31T12:42:54.322Z,20.20
2023-03-31T12:45:29.284Z,20.11
2023-03-31T12:48:26.329Z,20.16
2023-03-31T12:51:05.355Z,20.45
2023-03-31T12:53:40.690Z,19.88
2023-03-31T12:56:10.293Z,19.79
2023-03-31T12:58:41.365Z,19.53
2023-03-31T13:01:12.194Z,19.50
2023-03-31T13:03:45.430Z,19.21
2023-03-31T13:07:03.755Z,19.45
2023-03-31T13:09:57.932Z,19.70
2023-03-31T13:12:33.248Z,20.03
2023-03-31T13:15:06.245Z,19.63
2023-03-31T13:17:36.969Z,19.95
2023-03-31T13:20:25.850Z,19.96
2023-03-31T13:23:02.398Z,19.43
2023-03-31T13:25:41.193Z,19.39
2023-03-31T13:28:18.440Z,19.42
2023-03-31T13:30:52.369Z,19.37
2023-03-31T13:33:25.136Z,19.11
2023-03-31T13:36:01.009Z,18.96
2023-03-31T13:38:44.500Z,19.21
2023-03-31T13:41:26.633Z,19.21
2023-03-31T13:44:10.724Z,19.16
2023-03-31T13:47:08.620Z,19.12
2023-03-31T13:49:54.610Z,19.22
2023-03-31T13:52:38.046Z,18.91
2023-03-31T13:55:51.944Z,18.69
2023-03-31T13:58:42.323Z,18.79
2023-03-31T14:02:01.034Z,19.10
2023-03-31T14:04:52.620Z,18.94
2023-03-31T14:07:24.057Z,18.96
2023-03-31T14:09:54.280Z,18.62
2023-03-31T14:12:24.524Z,18.73
2023-03-31T14:14:54.725Z,18.96
2023-03-31T14:17:24.876Z,18.95
2023-03-31T14:20:24.226Z,19.09
2023-03-31T14:23:02.511Z,18.92
2023-03-31T14:25:44.788Z,18.98
2023-03-31T14:28:27.963Z,18.99
2023-03-31T14:31:11.273Z,19.02
2023-03-31T14:33:48.762Z,18.83
2023-03-31T14:36:28.541Z,18.73
2023-03-31T14:39:04.298Z,18.76
2023-03-31T14:41:32.356Z,18.49
2023-03-31T14:44:04.364Z,18.31
2023-03-31T14:46:33.861Z,18.09
2023-03-31T14:49:16.937Z,18.26
2023-03-31T14:51:46.841Z,18.14
2023-03-31T14:54:18.189Z,18.28
2023-03-31T14:56:50.732Z,18.26
2023-03-31T14:59:23.780Z,18.44
2023-03-31T15:01:52.192Z,18.52
2023-03-31T15:04:31.785Z,18.57
2023-03-31T15:07:09.041Z,18.62
2023-03-31T15:09:37.191Z,18.74
2023-03-31T15:12:08.584Z,18.67
2023-03-31T15:14:41.984Z,18.54
2023-03-31T15:17:22.263Z,18.57
2023-03-31T15:19:56.314Z,18.55
2023-03-31T15:22:28.134Z,18.61
2023-03-31T15:24:56.962Z,18.33
2023-03-31T15:27:37.017Z,18.52
2023-03-31T15:30:09.329Z,18.55
2023-03-31T15:32:39.154Z,18.43
2023-03-31T15:35:21.166Z,18.43
2023-03-31T15:37:53.473Z,18.32
2023-03-31T15:40:25.171Z,18.41
2023-03-31T15:43:06.285Z,18.43
2023-03-31T15:45:53.256Z,18.33
2023-03-31T15:48:24.701Z,18.37
2023-03-31T15:50:53.307Z,18.38
2023-03-31T15:53:30.742Z,18.26
2023-03-31T15:56:01.864Z,18.19
2023-03-31T15:58:58.081Z,18.25
2023-03-31T16:01:32.996Z,18.08
2023-03-31T16:04:02.636Z,18.11
2023-03-31T16:06:43.397Z,18.02
2023-03-31T16:09:16.250Z,17.89
2023-03-31T16:11:48.027Z,17.57
2023-03-31T16:14:21.341Z,17.71
2023-03-31T16:16:53.930Z,17.65
2023-03-31T16:19:25.975Z,17.40
2023-03-31T16:21:59.720Z,17.29
2023-03-31T16:24:33.679Z,17.28
2023-03-31T16:27:06.187Z,17.16
2023-03-31T16:29:35.390Z,16.99
2023-03-31T16:32:12.870Z,16.89
2023-03-31T16:34:56.287Z,16.43
2023-03-31T16:37:25.036Z,16.25
2023-03-31T16:39:54.904Z,16.16
2023-03-31T16:42:23.121Z,16.19
2023-03-31T16:45:09.527Z,15.94
2023-03-31T16:47:40.746Z,15.79
2023-03-31T16:50:10.918Z,15.74
2023-03-31T16:52:39.714Z,15.63
2023-03-31T16:55:09.905Z,15.54
2023-03-31T16:57:37.808Z,15.41
2023-03-31T17:00:06.750Z,15.21
2023-03-31T17:02:34.791Z,15.05
2023-03-31T17:05:12.641Z,14.61
2023-03-31T17:07:41.555Z,14.43
2023-03-31T17:10:12.931Z,14.51
2023-03-31T17:12:41.024Z,14.66
2023-03-31T17:15:10.674Z,14.50
2023-03-31T17:17:38.755Z,13.84
2023-03-31T17:20:09.019Z,13.60
2023-03-31T17:22:37.417Z,13.57
2023-03-31T17:25:05.979Z,13.69
2023-03-31T17:27:35.676Z,13.31
2023-03-31T17:32:36.688Z,13.66
2023-03-31T17:35:05.049Z,13.51
2023-03-31T17:37:33.151Z,13.35
2023-03-31T17:40:01.287Z,13.33
2023-03-31T17:42:29.228Z,13.25
2023-03-31T17:44:58.733Z,13.08
2023-03-31T17:47:27.199Z,12.96
2023-03-31T17:49:55.135Z,12.59
2023-03-31T17:52:23.685Z,12.74
2023-03-31T17:54:51.988Z,12.72
2023-03-31T17:57:19.954Z,12.75
2023-03-31T17:59:48.976Z,12.90
2023-03-31T18:02:18.850Z,12.96
2023-03-31T18:04:47.041Z,12.96
2023-03-31T18:07:15.134Z,12.41
2023-03-31T18:09:43.067Z,12.68
2023-03-31T18:12:11.060Z,12.44
2023-03-31T18:14:39.573Z,12.21
2023-03-31T18:17:07.536Z,12.08
2023-03-31T18:19:37.848Z,11.97
2023-03-31T18:22:05.984Z,12.15
2023-03-31T18:24:34.628Z,12.30
2023-03-31T18:27:02.910Z,12.30
2023-03-31T18:29:30.876Z,12.13
2023-03-31T18:31:58.904Z,12.04
2023-03-31T18:34:26.894Z,11.95
2023-03-31T18:36:56.303Z,11.78
2023-03-31T18:39:24.257Z,12.01
2023-03-31T18:41:53.489Z,12.20
2023-03-31T18:44:21.742Z,12.43
2023-03-31T18:46:49.806Z,12.52
2023-03-31T18:49:20.096Z,12.60
2023-03-31T18:51:48.068Z,12.39
2023-03-31T18:54:17.615Z,12.28
2023-03-31T18:56:45.886Z,12.14
2023-03-31T18:59:13.956Z,12.43
2023-03-31T19:01:42.171Z,12.53
2023-03-31T19:04:10.919Z,12.54
2023-03-31T19:06:39.145Z,12.68
2023-03-31T19:09:07.071Z,12.62
2023-03-31T19:11:36.470Z,12.65
2023-03-31T19:14:05.047Z,12.33
2023-03-31T19:16:34.690Z,12.42
2023-03-31T19:19:03.962Z,12.53
2023-03-31T19:21:33.309Z,12.53
2023-03-31T19:24:01.241Z,12.46
2023-03-31T19:26:29.753Z,12.46
2023-03-31T19:28:59.235Z,12.36
2023-03-31T19:31:27.998Z,12.32
2023-03-31T19:33:55.966Z,12.29
2023-03-31T19:36:23.963Z,12.26
2023-03-31T19:38:52.032Z,12.00
2023-03-31T19:41:19.934Z,12.00
2023-03-31T19:43:48.050Z,11.86
2023-03-31T19:46:17.392Z,11.83
2023-03-31T19:48:45.344Z,11.83
2023-03-31T19:51:13.311Z,11.72
2023-03-31T19:53:41.939Z,11.63
2023-03-31T19:56:11.884Z,11.82
2023-03-31T19:58:41.420Z,11.85
2023-03-31T20:01:15.301Z,11.65
2023-03-31T20:03:45.620Z,11.71
2023-03-31T20:06:15.753Z,11.64
2023-03-31T20:08:43.950Z,11.65
2023-03-31T20:11:15.405Z,11.54
2023-03-31T20:13:44.717Z,11.55
2023-03-31T20:16:15.083Z,11.60
2023-03-31T20:18:48.171Z,11.64
2023-03-31T20:21:18.026Z,11.60
2023-03-31T20:23:46.843Z,11.64
2023-03-31T20:26:16.860Z,11.61
2023-03-31T20:28:45.068Z,11.51
2023-03-31T20:31:14.765Z,11.35
2023-03-31T20:33:46.083Z,10.97
2023-03-31T20:36:16.266Z,11.28
2023-03-31T20:38:46.935Z,11.35
2023-03-31T20:41:15.740Z,11.35
2023-03-31T20:43:43.752Z,11.40
2023-03-31T20:46:12.500Z,11.35
2023-03-31T20:48:42.200Z,11.24
2023-03-31T20:51:14.465Z,10.97
2023-03-31T20:53:44.896Z,11.10
2023-03-31T20:56:14.743Z,10.97
2023-03-31T20:58:44.282Z,11.07
2023-03-31T21:01:13.108Z,11.12
2023-03-31T21:03:41.685Z,11.17
2023-03-31T21:06:13.772Z,11.18
2023-03-31T21:08:43.054Z,11.02
2023-03-31T21:11:11.286Z,10.69
2023-03-31T21:13:39.216Z,10.62
2023-03-31T21:16:07.621Z,10.59
2023-03-31T21:18:37.507Z,10.49
2023-03-31T21:21:07.167Z,10.01
2023-03-31T21:23:36.932Z,10.17
2023-03-31T21:26:06.824Z,10.31
2023-03-31T21:28:36.714Z,10.49
2023-03-31T21:31:06.822Z,10.06
2023-03-31T21:33:37.892Z,9.96
2023-03-31T21:36:06.859Z,9.26
2023-03-31T21:38:37.283Z,9.32
2023-03-31T21:41:09.850Z,9.05
2023-03-31T21:43:37.804Z,8.87
2023-03-31T21:46:06.548Z,8.86
2023-03-31T21:48:34.772Z,8.73
2023-03-31T21:51:03.227Z,9.18
2023-03-31T21:53:32.644Z,9.43
2023-03-31T21:56:02.251Z,9.07
2023-03-31T21:58:31.327Z,8.70
2023-03-31T22:01:02.096Z,8.64
2023-03-31T22:03:32.193Z,8.70
2023-03-31T22:06:00.882Z,8.71
2023-03-31T22:08:29.752Z,8.70
2023-03-31T22:10:58.440Z,9.01
2023-03-31T22:13:28.365Z,8.71
2023-03-31T22:15:56.700Z,8.64
2023-03-31T22:18:25.097Z,8.67
2023-03-31T22:20:53.753Z,9.10
2023-03-31T22:23:21.924Z,9.12
2023-03-31T22:25:50.416Z,9.29
2023-03-31T22:28:18.879Z,9.34
2023-03-31T22:30:48.170Z,9.34
2023-03-31T22:33:16.184Z,9.34
2023-03-31T22:35:44.845Z,9.25
2023-03-31T22:38:14.015Z,9.00
2023-03-31T22:40:42.003Z,9.12
2023-03-31T22:43:09.956Z,9.11
2023-03-31T22:45:38.864Z,9.20
2023-03-31T22:48:09.928Z,9.35
2023-03-31T22:50:37.964Z,9.35
2023-03-31T22:53:06.225Z,9.38
2023-03-31T22:55:34.499Z,9.43
2023-03-31T22:58:02.696Z,9.55
2023-03-31T23:00:30.701Z,9.60
2023-03-31T23:02:58.631Z,9.63
2023-03-31T23:05:28.036Z,9.24
2023-03-31T23:07:56.158Z,9.03
2023-03-31T23:10:24.754Z,9.17
2023-03-31T23:12:52.658Z,9.11
2023-03-31T23:15:22.179Z,9.21
2023-03-31T23:17:50.109Z,9.36
2023-03-31T23:20:18.227Z,9.47
2023-03-31T23:22:47.578Z,9.25
2023-03-31T23:25:15.708Z,9.43
2023-03-31T23:27:43.606Z,9.47
2023-03-31T23:30:12.612Z,9.48
2023-03-31T23:32:40.513Z,9.34
2023-03-31T23:35:09.112Z,9.35
2023-03-31T23:37:37.022Z,9.29
2023-03-31T23:40:07.780Z,9.36
2023-03-31T23:42:35.695Z,9.44
2023-03-31T23:45:03.709Z,9.37
2023-03-31T23:47:32.584Z,9.56
2023-03-31T23:50:01.252Z,9.79
2023-03-31T23:52:29.183Z,9.71
2023-03-31T23:54:57.088Z,9.45
2023-03-31T23:57:26.396Z,9.45
2023-03-31T23:59:54.357Z,9.39
